createdAt,value
2022-08-24T00:01:17.904Z,17.94
2022-08-24T00:03:47.785Z,17.92
2022-08-24T00:06:22.724Z,16.30
2022-08-24T00:08:52.202Z,17.85
2022-08-24T00:11:21.026Z,17.83
2022-08-24T00:13:49.036Z,17.68
2022-08-24T00:16:18.062Z,17.82
2022-08-24T00:18:47.092Z,17.81
2022-08-24T00:21:14.902Z,17.80
2022-08-24T00:23:44.255Z,17.79
2022-08-24T00:26:12.157Z,17.32
2022-08-24T00:28:40.006Z,17.73
2022-08-24T00:31:08.310Z,17.04
2022-08-24T00:33:36.751Z,17.67
2022-08-24T00:36:06.341Z,17.64
2022-08-24T00:38:35.629Z,17.63
2022-08-24T00:41:05.333Z,17.60
2022-08-24T00:43:33.939Z,17.58
2022-08-24T00:46:15.743Z,16.93
2022-08-24T00:48:48.018Z,17.58
2022-08-24T00:51:21.723Z,17.57
2022-08-24T00:53:53.137Z,17.55
2022-08-24T00:56:27.614Z,17.52
2022-08-24T00:59:00.500Z,17.37
2022-08-24T01:01:29.631Z,17.09
2022-08-24T01:03:59.380Z,17.25
2022-08-24T01:06:27.474Z,15.49
2022-08-24T01:08:56.799Z,17.29
2022-08-24T01:11:33.612Z,16.98
2022-08-24T01:14:03.169Z,17.13
2022-08-24T01:16:49.081Z,16.05
2022-08-24T01:19:29.520Z,17.31
2022-08-24T01:22:10.821Z,15.84
2022-08-24T01:24:41.335Z,15.58
2022-08-24T01:27:11.045Z,16.08
2022-08-24T01:29:42.465Z,17.19
2022-08-24T01:32:11.630Z,17.10
2022-08-24T01:34:39.632Z,17.04
2022-08-24T01:37:10.725Z,17.13
2022-08-24T01:39:44.967Z,17.09
2022-08-24T01:42:14.382Z,17.06
2022-08-24T01:44:45.686Z,16.67
2022-08-24T01:47:17.319Z,16.05
2022-08-24T01:49:49.428Z,15.73
2022-08-24T01:52:24.616Z,16.33
2022-08-24T01:54:54.931Z,15.16
2022-08-24T01:57:25.974Z,15.78
2022-08-24T01:59:57.528Z,16.74
2022-08-24T02:02:29.224Z,16.24
2022-08-24T02:04:57.742Z,16.81
2022-08-24T02:07:26.606Z,16.15
2022-08-24T02:09:55.990Z,16.40
2022-08-24T02:12:25.036Z,13.59
2022-08-24T02:14:53.135Z,16.71
2022-08-24T02:17:22.110Z,16.70
2022-08-24T02:19:51.671Z,16.14
2022-08-24T02:22:20.826Z,16.36
2022-08-24T02:24:48.868Z,15.40
2022-08-24T02:27:18.398Z,15.36
2022-08-24T02:29:46.946Z,15.86
2022-08-24T02:32:15.246Z,16.26
2022-08-24T02:34:44.112Z,14.81
2022-08-24T02:37:12.231Z,16.51
2022-08-24T02:39:40.931Z,16.48
2022-08-24T02:42:15.358Z,16.45
2022-08-24T02:44:44.772Z,16.15
2022-08-24T02:47:12.984Z,16.29
2022-08-24T02:49:41.189Z,16.21
2022-08-24T02:52:10.347Z,14.53
2022-08-24T02:54:39.674Z,16.01
2022-08-24T02:57:08.680Z,14.94
2022-08-24T02:59:36.870Z,15.37
2022-08-24T03:02:06.630Z,16.11
2022-08-24T03:04:35.023Z,16.14
2022-08-24T03:07:05.487Z,14.21
2022-08-24T03:09:33.395Z,13.64
2022-08-24T03:12:01.385Z,16.09
2022-08-24T03:14:29.289Z,13.56
2022-08-24T03:16:57.186Z,14.85
2022-08-24T03:19:26.505Z,14.12
2022-08-24T03:21:55.424Z,14.64
2022-08-24T03:24:23.445Z,14.47
2022-08-24T03:26:51.616Z,15.41
2022-08-24T03:29:19.905Z,13.02
2022-08-24T03:31:48.178Z,14.58
2022-08-24T03:34:17.126Z,14.68
2022-08-24T03:36:47.495Z,15.80
2022-08-24T03:39:18.195Z,15.77
2022-08-24T03:41:49.660Z,15.75
2022-08-24T03:44:22.524Z,15.25
2022-08-24T03:46:52.231Z,15.22
2022-08-24T03:49:21.442Z,12.74
2022-08-24T03:51:51.788Z,15.25
2022-08-24T03:54:23.328Z,15.29
2022-08-24T03:56:51.877Z,15.58
2022-08-24T03:59:20.338Z,15.55
2022-08-24T04:01:51.426Z,13.53
2022-08-24T04:04:19.433Z,14.47
2022-08-24T04:06:48.473Z,14.99
2022-08-24T04:09:19.892Z,13.07
2022-08-24T04:11:49.467Z,13.36
2022-08-24T04:14:26.495Z,15.28
2022-08-24T04:17:07.995Z,13.39
2022-08-24T04:19:57.478Z,12.61
2022-08-24T04:22:32.737Z,15.31
2022-08-24T04:25:02.225Z,15.30
2022-08-24T04:27:37.163Z,13.46
2022-08-24T04:30:06.132Z,14.10
2022-08-24T04:32:44.559Z,14.71
2022-08-24T04:35:12.938Z,15.03
2022-08-24T04:37:40.782Z,12.92
2022-08-24T04:40:11.422Z,15.24
2022-08-24T04:42:46.023Z,15.24
2022-08-24T04:45:16.388Z,15.25
2022-08-24T04:47:44.916Z,14.87
2022-08-24T04:50:13.916Z,15.27
2022-08-24T04:52:42.960Z,12.97
2022-08-24T04:55:12.806Z,14.20
2022-08-24T04:57:41.724Z,14.66
2022-08-24T05:00:11.620Z,15.32
2022-08-24T05:02:45.131Z,15.34
2022-08-24T05:05:14.834Z,13.81
2022-08-24T05:07:44.931Z,15.18
2022-08-24T05:10:16.223Z,15.43
2022-08-24T05:12:45.353Z,12.84
2022-08-24T05:15:13.474Z,13.48
2022-08-24T05:17:49.941Z,13.22
2022-08-24T05:20:20.245Z,16.17
2022-08-24T05:22:49.406Z,16.68
2022-08-24T05:25:20.392Z,17.02
2022-08-24T05:27:48.759Z,17.59
2022-08-24T05:30:16.841Z,17.41
2022-08-24T05:32:44.742Z,18.58
2022-08-24T05:35:12.843Z,19.11
2022-08-24T05:37:43.119Z,19.54
2022-08-24T05:40:18.833Z,19.64
2022-08-24T05:42:58.607Z,20.56
2022-08-24T05:45:26.516Z,20.92
2022-08-24T05:47:54.554Z,21.31
2022-08-24T05:50:55.384Z,22.41
2022-08-24T05:53:24.914Z,23.11
2022-08-24T05:55:52.754Z,23.79
2022-08-24T05:58:30.532Z,24.50
2022-08-24T06:01:07.207Z,25.30
2022-08-24T06:03:35.015Z,25.48
2022-08-24T06:06:05.075Z,26.73
2022-08-24T06:08:33.224Z,27.36
2022-08-24T06:11:02.619Z,28.03
2022-08-24T06:13:32.285Z,28.68
2022-08-24T06:16:20.850Z,29.39
2022-08-24T06:18:50.608Z,30.18
2022-08-24T06:21:24.116Z,30.66
2022-08-24T06:23:52.956Z,31.37
2022-08-24T06:26:39.706Z,31.71
2022-08-24T06:29:09.495Z,32.12
2022-08-24T06:31:46.632Z,33.24
2022-08-24T06:34:17.051Z,33.74
2022-08-24T06:36:45.261Z,33.42
2022-08-24T06:39:14.410Z,34.77
2022-08-24T06:41:46.020Z,35.19
2022-08-24T06:44:22.373Z,35.76
2022-08-24T06:46:59.892Z,36.31
2022-08-24T06:49:27.958Z,36.82
2022-08-24T06:51:56.655Z,37.14
2022-08-24T06:54:24.908Z,37.83
2022-08-24T06:56:52.858Z,38.10
2022-08-24T06:59:22.264Z,38.72
2022-08-24T07:01:50.664Z,39.16
2022-08-24T07:04:18.946Z,39.61
2022-08-24T07:07:09.649Z,40.18
2022-08-24T07:09:37.884Z,40.17
2022-08-24T07:12:06.318Z,41.12
2022-08-24T07:14:36.804Z,41.64
2022-08-24T07:17:04.878Z,42.06
2022-08-24T07:19:33.702Z,42.39
2022-08-24T07:22:04.208Z,42.88
2022-08-24T07:24:33.788Z,43.23
2022-08-24T07:27:01.881Z,43.28
2022-08-24T07:29:47.306Z,43.73
2022-08-24T07:32:19.605Z,44.55
2022-08-24T07:34:47.618Z,44.92
2022-08-24T07:37:15.616Z,45.07
2022-08-24T07:39:47.792Z,45.38
2022-08-24T07:42:25.322Z,46.06
2022-08-24T07:44:57.711Z,46.48
2022-08-24T07:47:38.167Z,47.05
2022-08-24T07:50:19.500Z,46.83
2022-08-24T07:52:48.027Z,47.68
2022-08-24T07:55:15.983Z,48.14
2022-08-24T07:57:46.107Z,48.58
2022-08-24T08:00:16.897Z,48.51
2022-08-24T08:02:50.425Z,49.25
2022-08-24T08:05:20.872Z,49.60
2022-08-24T08:07:52.412Z,49.99
2022-08-24T08:10:21.791Z,50.53
2022-08-24T08:12:49.907Z,50.92
2022-08-24T08:15:17.789Z,51.28
2022-08-24T08:17:56.774Z,51.27
2022-08-24T08:20:24.739Z,51.64
2022-08-24T08:23:10.695Z,51.59
2022-08-24T08:26:07.589Z,51.99
2022-08-24T08:29:01.888Z,52.13
2022-08-24T08:31:31.732Z,52.49
2022-08-24T08:34:04.310Z,52.46
2022-08-24T08:36:49.558Z,53.21
2022-08-24T08:39:25.774Z,53.76
2022-08-24T08:42:17.992Z,53.63
2022-08-24T08:45:00.256Z,53.87
2022-08-24T08:47:52.693Z,53.82
2022-08-24T08:50:35.042Z,53.81
2022-08-24T08:53:45.313Z,54.22
2022-08-24T08:56:23.957Z,54.28
2022-08-24T08:59:01.471Z,54.61
2022-08-24T09:01:47.798Z,55.00
2022-08-24T09:05:10.931Z,55.16
2022-08-24T09:07:49.500Z,55.83
2022-08-24T09:10:34.712Z,56.11
2022-08-24T09:13:17.850Z,55.78
2022-08-24T09:16:27.668Z,56.19
2022-08-24T09:19:15.919Z,56.18
2022-08-24T09:21:56.585Z,56.33
2022-08-24T09:24:42.932Z,56.68
2022-08-24T09:27:43.268Z,56.74
2022-08-24T09:30:18.430Z,56.84
2022-08-24T09:33:08.955Z,57.10
2022-08-24T09:36:04.015Z,57.47
2022-08-24T09:39:01.298Z,57.75
2022-08-24T09:42:08.442Z,57.73
2022-08-24T09:45:03.583Z,58.07
2022-08-24T09:48:15.922Z,57.99
2022-08-24T09:51:42.126Z,58.69
2022-08-24T09:54:48.466Z,58.84
2022-08-24T10:00:34.179Z,58.95
2022-08-24T10:03:27.398Z,58.56
2022-08-24T10:06:15.071Z,59.29
2022-08-24T10:09:10.044Z,59.63
2022-08-24T10:11:45.244Z,59.85
2022-08-24T10:14:30.379Z,59.63
2022-08-24T10:17:10.757Z,59.87
2022-08-24T10:19:53.616Z,59.63
2022-08-24T10:22:34.789Z,59.83
2022-08-24T10:25:16.784Z,59.90
2022-08-24T10:27:56.709Z,59.81
2022-08-24T10:30:56.138Z,59.74
2022-08-24T10:33:28.527Z,58.88
2022-08-24T10:36:08.563Z,58.64
2022-08-24T10:39:04.945Z,59.27
2022-08-24T10:42:11.310Z,59.18
2022-08-24T10:44:48.659Z,59.39
2022-08-24T10:47:26.744Z,59.77
2022-08-24T10:50:21.240Z,59.59
2022-08-24T10:53:04.731Z,58.51
2022-08-24T10:55:35.226Z,59.51
2022-08-24T10:58:42.300Z,59.98
2022-08-24T11:01:24.019Z,60.40
2022-08-24T11:03:57.680Z,60.66
2022-08-24T11:06:28.679Z,60.97
2022-08-24T11:09:02.793Z,60.81
2022-08-24T11:11:34.420Z,60.70
2022-08-24T11:14:04.936Z,59.34
2022-08-24T11:16:40.451Z,58.34
2022-08-24T11:19:13.193Z,58.11
2022-08-24T11:21:46.026Z,57.77
2022-08-24T11:24:27.525Z,55.89
2022-08-24T11:26:58.798Z,55.01
2022-08-24T11:29:51.348Z,56.46
2022-08-24T11:32:28.689Z,57.03
2022-08-24T11:35:02.764Z,57.47
2022-08-24T11:37:34.659Z,57.00
2022-08-24T11:40:04.679Z,57.72
2022-08-24T11:42:49.419Z,57.51
2022-08-24T11:45:30.347Z,57.55
2022-08-24T11:48:14.892Z,55.96
2022-08-24T11:50:49.951Z,54.26
2022-08-24T11:53:44.031Z,50.88
2022-08-24T11:56:31.892Z,47.85
2022-08-24T11:59:07.200Z,45.43
2022-08-24T12:01:42.843Z,42.73
2022-08-24T12:04:42.764Z,43.18
2022-08-24T12:07:21.303Z,41.83
2022-08-24T12:10:13.710Z,41.31
2022-08-24T12:12:52.847Z,40.54
2022-08-24T12:15:28.635Z,40.64
2022-08-24T12:18:05.047Z,40.52
2022-08-24T12:20:38.428Z,39.63
2022-08-24T12:23:15.009Z,38.83
2022-08-24T12:26:02.897Z,39.10
2022-08-24T12:28:38.218Z,38.73
2022-08-24T12:31:17.401Z,37.18
2022-08-24T12:33:52.061Z,38.27
2022-08-24T12:36:26.859Z,37.22
2022-08-24T12:39:09.876Z,37.93
2022-08-24T12:41:49.415Z,38.02
2022-08-24T12:44:18.544Z,37.93
2022-08-24T12:46:53.580Z,37.83
2022-08-24T12:49:27.373Z,37.58
2022-08-24T12:52:13.361Z,37.35
2022-08-24T12:55:00.686Z,37.25
2022-08-24T12:57:54.014Z,36.72
2022-08-24T13:00:29.459Z,37.09
2022-08-24T13:03:01.882Z,36.02
2022-08-24T13:05:41.720Z,37.05
2022-08-24T13:08:19.257Z,36.99
2022-08-24T13:11:01.270Z,36.88
2022-08-24T13:13:46.453Z,36.37
2022-08-24T13:16:48.986Z,36.43
2022-08-24T13:19:32.622Z,36.34
2022-08-24T13:22:02.305Z,36.37
2022-08-24T13:24:48.523Z,36.50
2022-08-24T13:28:06.811Z,36.38
2022-08-24T13:31:03.830Z,36.59
2022-08-24T13:33:36.610Z,36.56
2022-08-24T13:36:09.638Z,35.82
2022-08-24T13:38:59.432Z,35.82
2022-08-24T13:41:49.700Z,35.49
2022-08-24T13:44:42.355Z,34.02
2022-08-24T13:47:19.982Z,34.99
2022-08-24T13:50:03.184Z,34.75
2022-08-24T13:52:41.245Z,34.69
2022-08-24T13:55:30.028Z,34.91
2022-08-24T13:58:13.182Z,34.79
2022-08-24T14:00:48.412Z,34.59
2022-08-24T14:03:59.338Z,34.48
2022-08-24T14:06:33.380Z,33.42
2022-08-24T14:09:16.503Z,33.39
2022-08-24T14:12:01.096Z,33.76
2022-08-24T14:14:53.448Z,33.58
2022-08-24T14:17:49.356Z,34.15
2022-08-24T14:20:50.869Z,34.51
2022-08-24T14:23:58.640Z,33.28
2022-08-24T14:27:35.474Z,34.61
2022-08-24T14:34:17.095Z,34.54
2022-08-24T14:36:53.792Z,34.85
2022-08-24T14:39:37.006Z,33.93
2022-08-24T14:42:16.678Z,34.39
2022-08-24T14:44:57.384Z,34.97
2022-08-24T14:47:39.526Z,34.58
2022-08-24T14:50:15.165Z,35.11
2022-08-24T14:53:02.760Z,35.13
2022-08-24T14:55:43.180Z,35.15
2022-08-24T14:58:30.298Z,35.10
2022-08-24T15:01:25.119Z,35.30
2022-08-24T15:04:03.133Z,35.13
2022-08-24T15:06:46.226Z,35.23
2022-08-24T15:09:20.458Z,35.18
2022-08-24T15:12:50.931Z,32.88
2022-08-24T15:15:39.842Z,35.51
2022-08-24T15:18:41.413Z,32.77
2022-08-24T15:21:59.737Z,34.78
2022-08-24T15:24:59.870Z,34.85
2022-08-24T15:27:57.206Z,34.51
2022-08-24T15:30:37.991Z,34.28
2022-08-24T15:33:46.678Z,32.94
2022-08-24T15:36:54.196Z,34.55
2022-08-24T15:39:46.565Z,35.14
2022-08-24T15:42:16.177Z,35.00
2022-08-24T15:44:51.935Z,34.23
2022-08-24T15:47:36.508Z,34.21
2022-08-24T15:50:08.137Z,33.14
2022-08-24T15:52:46.811Z,34.20
2022-08-24T15:55:39.668Z,34.02
2022-08-24T15:58:49.172Z,33.79
2022-08-24T16:01:41.788Z,33.66
2022-08-24T16:04:17.024Z,32.90
2022-08-24T16:10:19.856Z,33.27
2022-08-24T16:12:51.750Z,33.12
2022-08-24T16:16:05.548Z,33.23
2022-08-24T16:18:57.147Z,32.28
2022-08-24T16:21:34.745Z,33.36
2022-08-24T16:28:27.126Z,32.13
2022-08-24T16:31:07.732Z,33.31
2022-08-24T16:33:43.601Z,33.51
2022-08-24T16:36:14.986Z,33.26
2022-08-24T16:38:48.320Z,32.75
2022-08-24T16:41:18.701Z,32.91
2022-08-24T16:43:57.354Z,33.23
2022-08-24T16:46:43.349Z,32.85
2022-08-24T16:49:33.090Z,33.18
2022-08-24T16:52:05.653Z,32.68
2022-08-24T16:55:04.690Z,33.09
2022-08-24T16:57:36.414Z,33.02
2022-08-24T17:00:10.922Z,32.46
2022-08-24T17:02:39.022Z,32.68
2022-08-24T17:05:07.980Z,32.75
2022-08-24T17:07:38.356Z,32.66
2022-08-24T17:10:14.437Z,32.57
2022-08-24T17:12:42.914Z,32.47
2022-08-24T17:15:16.071Z,31.72
2022-08-24T17:17:49.006Z,32.20
2022-08-24T17:20:17.164Z,32.04
2022-08-24T17:22:44.915Z,31.88
2022-08-24T17:25:12.725Z,31.72
2022-08-24T17:27:40.935Z,31.52
2022-08-24T17:30:10.527Z,31.31
2022-08-24T17:32:39.611Z,31.14
2022-08-24T17:35:07.804Z,30.98
2022-08-24T17:37:36.903Z,30.57
2022-08-24T17:40:07.550Z,30.40
2022-08-24T17:42:50.326Z,30.42
2022-08-24T17:45:19.176Z,28.77
2022-08-24T17:47:48.405Z,29.54
2022-08-24T17:50:19.699Z,29.83
2022-08-24T17:52:48.922Z,29.30
2022-08-24T17:55:27.156Z,29.43
2022-08-24T17:57:55.081Z,29.20
2022-08-24T18:00:23.035Z,28.13
2022-08-24T18:02:52.296Z,28.91
2022-08-24T18:05:21.088Z,28.77
2022-08-24T18:07:54.989Z,27.18
2022-08-24T18:10:27.854Z,27.38
2022-08-24T18:12:55.816Z,28.27
2022-08-24T18:15:34.850Z,25.76
2022-08-24T18:18:09.369Z,27.94
2022-08-24T18:20:39.799Z,26.53
2022-08-24T18:23:11.505Z,27.61
2022-08-24T18:25:45.614Z,27.42
2022-08-24T18:28:15.106Z,27.25
2022-08-24T18:30:44.047Z,26.79
2022-08-24T18:33:13.450Z,26.76
2022-08-24T18:35:41.497Z,26.73
2022-08-24T18:38:09.350Z,26.59
2022-08-24T18:40:37.263Z,26.06
2022-08-24T18:43:05.725Z,26.29
2022-08-24T18:45:34.655Z,25.78
2022-08-24T18:48:03.153Z,25.54
2022-08-24T18:50:36.761Z,25.40
2022-08-24T18:53:06.745Z,25.69
2022-08-24T18:55:34.568Z,25.55
2022-08-24T18:58:02.597Z,25.40
2022-08-24T19:00:30.507Z,24.85
2022-08-24T19:03:02.598Z,24.83
2022-08-24T19:05:31.130Z,25.01
2022-08-24T19:08:00.546Z,24.89
2022-08-24T19:10:32.547Z,24.34
2022-08-24T19:13:03.554Z,24.63
2022-08-24T19:15:39.927Z,24.32
2022-08-24T19:18:09.621Z,23.49
2022-08-24T19:20:42.381Z,24.31
2022-08-24T19:23:19.486Z,23.78
2022-08-24T19:25:47.460Z,23.76
2022-08-24T19:28:15.532Z,22.77
2022-08-24T19:30:44.570Z,21.78
2022-08-24T19:33:14.832Z,23.79
2022-08-24T19:35:43.435Z,23.68
2022-08-24T19:38:14.294Z,23.12
2022-08-24T19:40:44.003Z,21.40
2022-08-24T19:43:19.022Z,21.38
2022-08-24T19:46:06.399Z,21.36
2022-08-24T19:48:36.557Z,23.05
2022-08-24T19:51:12.685Z,22.09
2022-08-24T19:53:42.906Z,22.94
2022-08-24T19:56:16.165Z,22.86
2022-08-24T19:58:51.379Z,21.74
2022-08-24T20:01:22.024Z,21.27
2022-08-24T20:03:50.483Z,21.59
2022-08-24T20:06:21.116Z,21.53
2022-08-24T20:08:49.670Z,22.48
2022-08-24T20:11:20.591Z,22.30
2022-08-24T20:13:53.948Z,21.88
2022-08-24T20:16:24.969Z,21.72
2022-08-24T20:18:53.236Z,20.42
2022-08-24T20:21:25.217Z,21.97
2022-08-24T20:23:56.121Z,21.05
2022-08-24T20:26:43.568Z,21.75
2022-08-24T20:29:12.051Z,21.87
2022-08-24T20:31:55.972Z,21.42
2022-08-24T20:34:36.129Z,19.89
2022-08-24T20:37:04.575Z,20.32
2022-08-24T20:39:39.974Z,19.62
2022-08-24T20:42:14.017Z,21.24
2022-08-24T20:44:44.451Z,21.40
2022-08-24T20:47:13.013Z,21.06
2022-08-24T20:49:41.420Z,21.26
2022-08-24T20:52:09.720Z,21.20
2022-08-24T20:54:39.860Z,21.11
2022-08-24T20:57:12.680Z,20.78
2022-08-24T20:59:40.631Z,19.16
2022-08-24T21:02:09.617Z,20.87
2022-08-24T21:04:38.581Z,20.79
2022-08-24T21:07:06.652Z,20.72
2022-08-24T21:09:34.498Z,18.86
2022-08-24T21:12:02.345Z,20.51
2022-08-24T21:14:31.535Z,20.54
2022-08-24T21:17:00.355Z,19.45
2022-08-24T21:19:30.064Z,19.05
2022-08-24T21:21:57.973Z,20.35
2022-08-24T21:24:26.615Z,20.28
2022-08-24T21:26:54.923Z,17.59
2022-08-24T21:29:23.090Z,20.18
2022-08-24T21:32:10.158Z,20.12
2022-08-24T21:34:43.755Z,19.96
2022-08-24T21:37:15.056Z,19.93
2022-08-24T21:39:43.173Z,17.19
2022-08-24T21:42:12.818Z,19.89
2022-08-24T21:44:42.239Z,19.85
2022-08-24T21:47:11.755Z,19.78
2022-08-24T21:49:41.193Z,17.88
2022-08-24T21:52:09.216Z,19.55
2022-08-24T21:54:37.190Z,19.56
2022-08-24T21:57:06.987Z,19.54
2022-08-24T21:59:35.336Z,19.25
2022-08-24T22:02:05.064Z,18.92
2022-08-24T22:04:35.057Z,19.44
2022-08-24T22:07:03.568Z,17.29
2022-08-24T22:09:31.608Z,18.78
2022-08-24T22:11:59.878Z,17.04
2022-08-24T22:14:27.740Z,19.24
2022-08-24T22:16:55.734Z,19.09
2022-08-24T22:19:23.632Z,18.86
2022-08-24T22:21:52.798Z,18.84
2022-08-24T22:24:21.130Z,19.04
2022-08-24T22:26:49.034Z,18.88
2022-08-24T22:29:16.929Z,17.57
2022-08-24T22:31:45.620Z,18.65
2022-08-24T22:34:20.770Z,18.78
2022-08-24T22:36:49.541Z,18.83
2022-08-24T22:39:18.937Z,16.68
2022-08-24T22:41:46.791Z,16.62
2022-08-24T22:44:21.226Z,18.73
2022-08-24T22:46:51.469Z,18.69
2022-08-24T22:49:21.166Z,17.97
2022-08-24T22:51:49.485Z,18.64
2022-08-24T22:54:19.875Z,18.61
2022-08-24T22:56:50.084Z,16.99
2022-08-24T22:59:20.087Z,18.52
2022-08-24T23:01:50.197Z,18.48
2022-08-24T23:04:20.594Z,18.46
2022-08-24T23:06:49.064Z,16.29
2022-08-24T23:09:18.844Z,17.82
2022-08-24T23:11:47.109Z,18.34
2022-08-24T23:14:16.436Z,15.47
2022-08-24T23:16:47.770Z,15.64
2022-08-24T23:19:34.941Z,16.03
2022-08-24T23:22:07.423Z,18.20
2022-08-24T23:24:37.351Z,18.16
2022-08-24T23:27:06.460Z,18.13
2022-08-24T23:29:34.786Z,17.49
2022-08-24T23:32:03.169Z,17.95
2022-08-24T23:34:31.162Z,16.22
2022-08-24T23:36:59.217Z,17.98
2022-08-24T23:39:27.778Z,17.52
2022-08-24T23:41:57.358Z,17.92
2022-08-24T23:44:27.593Z,17.23
2022-08-24T23:46:56.396Z,17.02
2022-08-24T23:49:25.903Z,17.36
2022-08-24T23:51:54.598Z,17.22
2022-08-24T23:54:23.580Z,15.77
2022-08-24T23:56:52.756Z,17.68
2022-08-24T23:59:24.306Z,16.56
